createdAt,value
2019-06-20T00:00:48.291Z,88.02
2019-06-20T00:01:48.212Z,88.32
2019-06-20T00:02:48.198Z,88.36
2019-06-20T00:03:48.244Z,88.76
2019-06-20T00:04:48.202Z,88.86
2019-06-20T00:05:48.173Z,88.76
2019-06-20T00:06:48.165Z,88.96
2019-06-20T00:07:48.139Z,89.37
2019-06-20T00:08:48.145Z,89.37
2019-06-20T00:09:48.509Z,89.57
2019-06-20T00:10:48.326Z,89.71
2019-06-20T00:11:48.242Z,89.91
2019-06-20T00:12:59.905Z,89.91
2019-06-20T00:13:49.097Z,90.52
2019-06-20T00:14:48.148Z,90.52
2019-06-20T00:15:48.080Z,90.17
2019-06-20T00:16:48.155Z,89.57
2019-06-20T00:17:48.013Z,89.67
2019-06-20T00:18:48.040Z,89.57
2019-06-20T00:19:47.978Z,89.37
2019-06-20T00:20:47.995Z,88.96
2019-06-20T00:21:48.483Z,88.86
2019-06-20T00:22:47.954Z,89.06
2019-06-20T00:23:47.998Z,88.96
2019-06-20T00:24:48.063Z,89.06
2019-06-20T00:25:47.961Z,88.82
2019-06-20T00:26:47.996Z,88.92
2019-06-20T00:27:48.288Z,88.32
2019-06-20T00:28:47.959Z,88.02
2019-06-20T00:29:49.072Z,88.52
2019-06-20T00:30:47.923Z,88.62
2019-06-20T00:31:47.892Z,88.72
2019-06-20T00:33:08.980Z,88.32
2019-06-20T00:33:47.859Z,88.22
2019-06-20T00:34:48.193Z,88.02
2019-06-20T00:35:47.873Z,88.02
2019-06-20T00:36:51.183Z,88.32
2019-06-20T00:37:47.820Z,88.72
2019-06-20T00:38:47.888Z,88.52
2019-06-20T00:39:47.797Z,87.82
2019-06-20T00:40:47.863Z,88.02
2019-06-20T00:41:48.045Z,87.82
2019-06-20T00:42:54.449Z,88.02
2019-06-20T00:43:47.785Z,87.92
2019-06-20T00:44:47.797Z,88.06
2019-06-20T00:45:48.093Z,88.36
2019-06-20T00:46:48.071Z,88.46
2019-06-20T00:47:47.749Z,88.36
2019-06-20T00:48:47.818Z,88.46
2019-06-20T00:49:47.674Z,88.36
2019-06-20T00:50:47.767Z,88.52
2019-06-20T00:51:48.006Z,88.32
2019-06-20T00:52:47.634Z,88.12
2019-06-20T00:53:47.675Z,88.12
2019-06-20T00:54:47.643Z,88.02
2019-06-20T00:55:47.609Z,87.41
2019-06-20T00:56:47.679Z,87.82
2019-06-20T00:57:47.705Z,87.51
2019-06-20T00:58:47.627Z,87.71
2019-06-20T00:59:47.597Z,87.82
2019-06-20T01:00:47.773Z,87.67
2019-06-20T01:02:03.548Z,87.57
2019-06-20T01:02:47.687Z,86.97
2019-06-20T01:03:47.800Z,86.77
2019-06-20T01:04:47.668Z,86.66
2019-06-20T01:06:58.122Z,86.66
2019-06-20T01:08:05.867Z,87.27
2019-06-20T01:08:57.530Z,87.62
2019-06-20T01:09:57.548Z,87.41
2019-06-20T01:10:57.524Z,87.51
2019-06-20T01:11:57.504Z,87.71
2019-06-20T01:12:57.544Z,87.71
2019-06-20T01:13:57.774Z,87.62
2019-06-20T01:14:57.477Z,88.06
2019-06-20T01:15:57.494Z,88.46
2019-06-20T01:16:57.536Z,88.76
2019-06-20T01:17:57.446Z,89.06
2019-06-20T01:18:57.475Z,89.06
2019-06-20T01:19:58.354Z,89.31
2019-06-20T01:20:57.415Z,89.41
2019-06-20T01:21:57.412Z,89.57
2019-06-20T01:22:57.404Z,89.17
2019-06-20T01:23:57.384Z,89.26
2019-06-20T01:24:57.864Z,89.26
2019-06-20T01:25:57.644Z,89.17
2019-06-20T01:26:57.365Z,89.06
2019-06-20T01:27:57.365Z,89.06
2019-06-20T01:28:57.335Z,88.66
2019-06-20T01:29:57.335Z,88.56
2019-06-20T01:30:57.354Z,88.42
2019-06-20T01:31:57.304Z,88.22
2019-06-20T01:32:57.311Z,88.26
2019-06-20T01:33:57.285Z,88.46
2019-06-20T01:34:57.274Z,88.26
2019-06-20T01:35:57.265Z,88.26
2019-06-20T01:36:57.294Z,88.46
2019-06-20T01:37:57.525Z,88.52
2019-06-20T01:38:57.234Z,88.32
2019-06-20T01:39:57.224Z,88.22
2019-06-20T01:40:57.215Z,87.71
2019-06-20T01:41:57.205Z,87.62
2019-06-20T01:42:57.274Z,87.65
2019-06-20T01:43:57.184Z,88.06
2019-06-20T01:44:57.175Z,88.16
2019-06-20T01:45:57.163Z,88.16
2019-06-20T01:46:57.155Z,88.16
2019-06-20T01:47:57.145Z,87.96
2019-06-20T01:48:57.193Z,87.76
2019-06-20T01:49:57.404Z,87.85
2019-06-20T01:50:57.118Z,87.55
2019-06-20T01:51:57.199Z,87.55
2019-06-20T01:52:57.095Z,87.76
2019-06-20T01:53:57.079Z,87.76
2019-06-20T01:54:57.106Z,88.06
2019-06-20T01:55:57.081Z,88.30
2019-06-20T01:56:57.046Z,88.70
2019-06-20T01:57:57.036Z,89.01
2019-06-20T01:58:57.025Z,89.51
2019-06-20T01:59:57.016Z,89.51
2019-06-20T02:02:29.653Z,89.65
2019-06-20T02:03:29.593Z,89.86
2019-06-20T02:04:29.554Z,90.16
2019-06-20T02:05:29.537Z,90.41
2019-06-20T02:06:29.533Z,90.81
2019-06-20T02:07:29.524Z,90.81
2019-06-20T02:08:29.844Z,90.97
2019-06-20T02:09:29.514Z,90.66
2019-06-20T02:10:29.488Z,90.16
2019-06-20T02:11:29.473Z,90.26
2019-06-20T02:12:29.463Z,90.36
2019-06-20T02:13:29.457Z,89.95
2019-06-20T02:14:29.507Z,89.86
2019-06-20T02:15:29.431Z,89.55
2019-06-20T02:16:29.423Z,89.86
2019-06-20T02:17:29.411Z,89.95
2019-06-20T02:18:29.394Z,89.86
2019-06-20T02:19:29.392Z,89.55
2019-06-20T02:20:29.780Z,89.45
2019-06-20T02:21:29.366Z,89.65
2019-06-20T02:22:29.363Z,89.55
2019-06-20T02:23:29.353Z,89.51
2019-06-20T02:24:29.346Z,89.31
2019-06-20T02:25:29.328Z,89.11
2019-06-20T02:26:29.353Z,88.81
2019-06-20T02:27:29.594Z,88.50
2019-06-20T02:28:29.304Z,88.40
2019-06-20T02:29:29.284Z,88.60
2019-06-20T02:30:29.276Z,88.95
2019-06-20T02:31:29.265Z,89.35
2019-06-20T02:32:29.309Z,89.65
2019-06-20T02:33:29.264Z,89.86
2019-06-20T02:34:29.525Z,90.06
2019-06-20T02:35:29.224Z,90.06
2019-06-20T02:36:29.205Z,89.86
2019-06-20T02:37:29.203Z,89.55
2019-06-20T02:38:29.695Z,89.55
2019-06-20T02:39:29.174Z,89.65
2019-06-20T02:40:29.170Z,89.55
2019-06-20T02:41:29.463Z,89.65
2019-06-20T02:42:29.143Z,89.55
2019-06-20T02:43:29.133Z,89.25
2019-06-20T02:44:30.802Z,89.21
2019-06-20T02:45:29.114Z,89.01
2019-06-20T02:46:29.104Z,88.30
2019-06-20T02:47:29.093Z,88.30
2019-06-20T02:48:29.381Z,88.95
2019-06-20T02:49:29.073Z,89.15
2019-06-20T02:50:29.125Z,89.25
2019-06-20T02:51:29.054Z,88.95
2019-06-20T02:52:29.033Z,89.15
2019-06-20T02:53:29.151Z,89.35
2019-06-20T02:54:29.013Z,89.35
2019-06-20T02:55:29.313Z,89.25
2019-06-20T02:56:29.564Z,89.45
2019-06-20T02:57:28.985Z,87.84
2019-06-20T02:58:29.027Z,87.84
2019-06-20T02:59:28.994Z,88.14
2019-06-20T03:00:28.954Z,88.54
2019-06-20T03:01:29.000Z,88.54
2019-06-20T03:02:29.023Z,88.75
2019-06-20T03:03:28.925Z,89.05
2019-06-20T03:04:28.911Z,88.54
2019-06-20T03:05:28.947Z,88.04
2019-06-20T03:06:28.903Z,88.65
2019-06-20T03:07:28.988Z,88.54
2019-06-20T03:08:29.314Z,89.15
2019-06-20T03:09:28.914Z,89.39
2019-06-20T03:10:28.843Z,89.70
2019-06-20T03:11:28.842Z,89.79
2019-06-20T03:12:28.823Z,89.90
2019-06-20T03:13:28.813Z,90.00
2019-06-20T03:14:41.779Z,89.75
2019-06-20T03:15:29.803Z,89.75
2019-06-20T03:16:28.792Z,89.35
2019-06-20T03:17:28.779Z,89.39
2019-06-20T03:18:28.764Z,89.35
2019-06-20T03:19:28.753Z,89.45
2019-06-20T03:20:28.793Z,89.15
2019-06-20T03:21:29.213Z,88.95
2019-06-20T03:22:28.723Z,88.54
2019-06-20T03:23:28.713Z,88.95
2019-06-20T03:24:28.693Z,89.15
2019-06-20T03:25:28.696Z,89.05
2019-06-20T03:26:28.712Z,88.85
2019-06-20T03:27:28.678Z,88.95
2019-06-20T03:28:28.653Z,88.85
2019-06-20T03:29:28.653Z,88.45
2019-06-20T03:30:28.643Z,87.94
2019-06-20T03:31:28.623Z,88.14
2019-06-20T03:32:29.092Z,87.74
2019-06-20T03:33:28.901Z,87.19
2019-06-20T03:34:28.592Z,87.09
2019-06-20T03:35:28.582Z,87.19
2019-06-20T03:36:28.564Z,86.69
2019-06-20T03:37:28.583Z,85.78
2019-06-20T03:38:28.583Z,84.97
2019-06-20T03:39:28.793Z,84.83
2019-06-20T03:40:28.525Z,85.24
2019-06-20T03:41:28.522Z,84.83
2019-06-20T03:42:28.514Z,84.83
2019-06-20T03:43:28.494Z,84.63
2019-06-20T03:44:28.513Z,83.72
2019-06-20T03:45:28.762Z,83.62
2019-06-20T03:46:28.462Z,83.93
2019-06-20T03:47:28.452Z,83.89
2019-06-20T03:48:28.443Z,83.79
2019-06-20T03:49:28.431Z,83.79
2019-06-20T03:50:28.910Z,83.39
2019-06-20T03:51:28.413Z,82.88
2019-06-20T03:52:28.403Z,83.08
2019-06-20T03:53:28.392Z,83.59
2019-06-20T03:54:28.385Z,83.75
2019-06-20T03:55:28.362Z,83.84
2019-06-20T03:56:28.400Z,83.25
2019-06-20T03:57:28.633Z,82.84
2019-06-20T03:58:28.333Z,83.04
2019-06-20T03:59:28.322Z,82.98
2019-06-20T04:00:28.323Z,83.18
2019-06-20T04:01:28.314Z,83.08
2019-06-20T04:02:28.322Z,82.98
2019-06-20T04:03:28.284Z,82.74
2019-06-20T04:04:28.553Z,82.34
2019-06-20T04:05:28.268Z,82.44
2019-06-20T04:06:28.683Z,82.50
2019-06-20T04:07:28.251Z,82.30
2019-06-20T04:08:28.282Z,81.79
2019-06-20T04:09:28.225Z,81.49
2019-06-20T04:10:28.210Z,81.79
2019-06-20T04:11:28.493Z,81.59
2019-06-20T04:12:28.193Z,81.70
2019-06-20T04:13:28.184Z,81.39
2019-06-20T04:14:28.202Z,81.49
2019-06-20T04:15:28.159Z,81.79
2019-06-20T04:16:28.145Z,81.90
2019-06-20T04:17:28.147Z,82.10
2019-06-20T04:18:28.412Z,81.59
2019-06-20T04:19:28.125Z,81.49
2019-06-20T04:20:28.152Z,81.39
2019-06-20T04:21:28.093Z,81.79
2019-06-20T04:22:28.082Z,81.59
2019-06-20T04:23:28.145Z,81.19
2019-06-20T04:24:28.192Z,81.79
2019-06-20T04:25:28.346Z,81.59
2019-06-20T04:26:28.123Z,81.93
2019-06-20T04:27:28.035Z,82.04
2019-06-20T04:28:28.023Z,82.14
2019-06-20T04:29:28.013Z,82.14
2019-06-20T04:30:28.004Z,82.44
2019-06-20T04:31:28.002Z,82.04
2019-06-20T04:32:28.026Z,82.24
2019-06-20T04:33:27.994Z,82.44
2019-06-20T04:34:27.959Z,82.54
2019-06-20T04:35:27.950Z,82.54
2019-06-20T04:36:27.941Z,82.84
2019-06-20T04:37:27.934Z,82.34
2019-06-20T04:38:28.274Z,82.40
2019-06-20T04:39:27.943Z,82.60
2019-06-20T04:40:27.902Z,81.90
2019-06-20T04:41:27.889Z,81.59
2019-06-20T04:42:27.892Z,82.30
2019-06-20T04:43:27.872Z,82.60
2019-06-20T04:44:27.954Z,82.94
2019-06-20T04:45:35.122Z,83.04
2019-06-20T04:46:28.852Z,83.54
2019-06-20T04:47:27.832Z,83.75
2019-06-20T04:48:27.813Z,84.09
2019-06-20T04:49:27.904Z,83.99
2019-06-20T04:50:27.933Z,83.84
2019-06-20T04:51:27.791Z,84.05
2019-06-20T04:52:27.784Z,84.25
2019-06-20T04:53:27.765Z,84.35
2019-06-20T04:54:27.753Z,84.55
2019-06-20T04:55:27.742Z,84.55
2019-06-20T04:56:27.786Z,84.75
2019-06-20T04:57:28.030Z,84.85
2019-06-20T04:58:27.719Z,85.20
2019-06-20T04:59:27.692Z,85.40
2019-06-20T05:00:27.692Z,85.40
2019-06-20T05:01:27.674Z,85.25
2019-06-20T05:02:27.721Z,85.16
2019-06-20T05:03:27.654Z,84.95
2019-06-20T05:04:27.947Z,84.75
2019-06-20T05:05:27.635Z,84.55
2019-06-20T05:06:27.622Z,84.35
2019-06-20T05:07:27.620Z,84.45
2019-06-20T05:08:27.643Z,84.55
2019-06-20T05:09:27.592Z,84.31
2019-06-20T05:10:27.586Z,83.91
2019-06-20T05:11:27.574Z,84.01
2019-06-20T05:12:27.575Z,84.01
2019-06-20T05:13:27.556Z,84.31
2019-06-20T05:14:27.588Z,84.21
2019-06-20T05:15:27.530Z,84.31
2019-06-20T05:16:27.803Z,84.41
2019-06-20T05:17:27.511Z,84.01
2019-06-20T05:18:27.513Z,84.21
2019-06-20T05:19:27.490Z,84.21
2019-06-20T05:20:27.543Z,84.61
2019-06-20T05:21:27.479Z,84.51
2019-06-20T05:22:27.464Z,84.61
2019-06-20T05:23:27.443Z,84.51
2019-06-20T05:24:27.441Z,84.11
2019-06-20T05:25:27.429Z,84.91
2019-06-20T05:26:27.463Z,84.41
2019-06-20T05:27:27.413Z,84.21
2019-06-20T05:28:27.694Z,83.91
2019-06-20T05:29:27.384Z,84.21
2019-06-20T05:30:27.373Z,84.21
2019-06-20T05:31:27.364Z,83.81
2019-06-20T05:32:27.383Z,83.71
2019-06-20T05:33:27.342Z,84.41
2019-06-20T05:34:27.334Z,84.61
2019-06-20T05:35:27.323Z,84.11
2019-06-20T05:36:27.310Z,84.11
2019-06-20T05:37:27.295Z,84.01
2019-06-20T05:38:27.342Z,84.01
2019-06-20T05:39:27.292Z,83.91
2019-06-20T05:40:27.683Z,84.11
2019-06-20T05:41:27.311Z,84.21
2019-06-20T05:42:27.249Z,84.31
2019-06-20T05:43:27.232Z,84.41
2019-06-20T05:44:27.279Z,84.11
2019-06-20T05:45:27.223Z,84.11
2019-06-20T05:46:27.243Z,84.01
2019-06-20T05:47:27.483Z,83.71
2019-06-20T05:48:27.223Z,84.01
2019-06-20T05:49:27.173Z,84.41
2019-06-20T05:50:27.205Z,84.61
2019-06-20T05:51:27.163Z,84.71
2019-06-20T05:52:27.204Z,84.81
2019-06-20T05:53:27.134Z,84.61
2019-06-20T05:54:27.412Z,84.41
2019-06-20T05:55:27.116Z,84.21
2019-06-20T05:56:27.163Z,84.21
2019-06-20T05:57:27.125Z,84.01
2019-06-20T05:58:27.179Z,83.97
2019-06-20T05:59:27.134Z,83.87
2019-06-20T06:00:27.096Z,84.17
2019-06-20T06:01:27.342Z,84.07
2019-06-20T06:02:27.095Z,83.47
2019-06-20T06:03:27.152Z,83.57
2019-06-20T06:04:27.023Z,83.37
2019-06-20T06:05:27.004Z,83.17
2019-06-20T06:06:27.064Z,82.97
2019-06-20T06:07:26.984Z,82.97
2019-06-20T06:08:27.321Z,83.26
2019-06-20T06:09:27.221Z,83.57
2019-06-20T06:10:26.954Z,83.76
2019-06-20T06:11:26.943Z,83.26
2019-06-20T06:12:27.439Z,83.57
2019-06-20T06:13:26.926Z,83.37
2019-06-20T06:14:26.962Z,83.26
2019-06-20T06:15:27.190Z,83.17
2019-06-20T06:16:28.422Z,83.37
2019-06-20T06:17:26.894Z,83.26
2019-06-20T06:18:26.874Z,83.37
2019-06-20T06:19:26.853Z,83.47
2019-06-20T06:20:26.884Z,83.71
2019-06-20T06:21:26.845Z,83.81
2019-06-20T06:22:27.134Z,83.67
2019-06-20T06:23:26.815Z,83.37
2019-06-20T06:24:26.805Z,83.17
2019-06-20T06:25:26.802Z,83.06
2019-06-20T06:26:26.856Z,82.66
2019-06-20T06:27:26.773Z,82.66
2019-06-20T06:28:26.785Z,82.76
2019-06-20T06:29:26.753Z,82.97
2019-06-20T06:30:26.750Z,83.17
2019-06-20T06:31:26.734Z,82.97
2019-06-20T06:32:39.502Z,82.66
2019-06-20T06:33:27.712Z,82.76
2019-06-20T06:34:26.984Z,82.76
2019-06-20T06:35:26.686Z,82.86
2019-06-20T06:36:26.680Z,82.66
2019-06-20T06:37:26.673Z,83.06
2019-06-20T06:38:26.698Z,82.92
2019-06-20T06:39:26.663Z,82.72
2019-06-20T06:40:26.651Z,82.82
2019-06-20T06:41:26.633Z,83.12
2019-06-20T06:42:26.843Z,82.62
2019-06-20T06:43:26.603Z,82.72
2019-06-20T06:44:26.641Z,82.72
2019-06-20T06:45:26.594Z,82.72
2019-06-20T06:46:42.537Z,82.62
2019-06-20T06:47:27.562Z,82.62
2019-06-20T06:48:26.563Z,82.62
2019-06-20T06:49:26.544Z,82.62
2019-06-20T06:50:26.603Z,82.62
2019-06-20T06:51:26.548Z,82.08
2019-06-20T06:52:26.513Z,81.88
2019-06-20T06:53:26.554Z,81.58
2019-06-20T06:54:26.492Z,81.54
2019-06-20T06:55:27.698Z,81.27
2019-06-20T06:56:26.504Z,81.38
2019-06-20T06:57:26.455Z,81.48
2019-06-20T06:58:26.733Z,81.48
2019-06-20T06:59:26.463Z,81.78
2019-06-20T07:00:26.420Z,81.78
2019-06-20T07:01:26.428Z,81.98
2019-06-20T07:02:26.451Z,81.88
2019-06-20T07:03:26.384Z,81.68
2019-06-20T07:04:26.385Z,81.34
2019-06-20T07:05:26.784Z,81.14
2019-06-20T07:06:26.603Z,81.04
2019-06-20T07:07:26.343Z,80.83
2019-06-20T07:08:26.377Z,81.24
2019-06-20T07:09:26.322Z,81.34
2019-06-20T07:10:26.661Z,81.07
2019-06-20T07:11:26.326Z,80.77
2019-06-20T07:12:26.313Z,80.68
2019-06-20T07:13:26.273Z,80.57
2019-06-20T07:14:26.318Z,80.33
2019-06-20T07:15:26.256Z,80.13
2019-06-20T07:16:26.254Z,79.99
2019-06-20T07:17:26.513Z,79.73
2019-06-20T07:18:26.267Z,79.90
2019-06-20T07:19:26.212Z,79.69
2019-06-20T07:20:26.235Z,79.39
2019-06-20T07:21:26.209Z,79.36
2019-06-20T07:22:26.199Z,78.85
2019-06-20T07:23:26.223Z,77.81
2019-06-20T07:24:26.556Z,77.08
2019-06-20T07:25:26.149Z,77.17
2019-06-20T07:26:26.181Z,77.08
2019-06-20T07:27:26.190Z,76.78
2019-06-20T07:28:26.112Z,76.28
2019-06-20T07:29:26.106Z,75.84
2019-06-20T07:30:27.015Z,75.37
2019-06-20T07:31:26.464Z,75.37
2019-06-20T07:32:26.125Z,75.87
2019-06-20T07:33:26.126Z,75.77
2019-06-20T07:34:26.046Z,76.17
2019-06-20T07:35:26.075Z,75.97
2019-06-20T07:36:26.037Z,76.17
2019-06-20T07:37:26.026Z,76.17
2019-06-20T07:38:26.134Z,75.47
2019-06-20T07:39:26.014Z,75.67
2019-06-20T07:40:25.995Z,74.87
2019-06-20T07:41:25.979Z,74.87
2019-06-20T07:42:25.965Z,75.21
2019-06-20T07:43:25.954Z,75.57
2019-06-20T07:44:26.336Z,74.00
2019-06-20T07:45:27.354Z,73.19
2019-06-20T07:46:25.919Z,72.76
2019-06-20T07:47:25.912Z,72.36
2019-06-20T07:48:25.903Z,72.86
2019-06-20T07:49:25.885Z,72.26
2019-06-20T07:50:26.002Z,71.83
2019-06-20T07:51:26.333Z,71.66
2019-06-20T07:52:25.870Z,72.30
2019-06-20T07:53:25.856Z,72.23
2019-06-20T07:54:25.859Z,72.43
2019-06-20T07:55:25.828Z,72.30
2019-06-20T07:56:25.866Z,72.00
2019-06-20T07:57:25.908Z,71.46
2019-06-20T07:58:26.130Z,70.66
2019-06-20T07:59:25.849Z,70.86
2019-06-20T08:00:25.767Z,71.89
2019-06-20T08:01:25.815Z,71.50
2019-06-20T08:02:25.796Z,71.59
2019-06-20T08:03:25.746Z,71.56
2019-06-20T08:04:25.811Z,70.92
2019-06-20T08:05:25.760Z,69.89
2019-06-20T08:06:25.755Z,69.76
2019-06-20T08:07:25.815Z,69.46
2019-06-20T08:08:25.828Z,69.26
2019-06-20T08:09:40.589Z,68.52
2019-06-20T08:10:26.682Z,67.96
2019-06-20T08:11:25.653Z,66.73
2019-06-20T08:12:25.647Z,66.27
2019-06-20T08:13:25.635Z,66.36
2019-06-20T08:14:25.674Z,66.66
2019-06-20T08:15:25.615Z,67.30
2019-06-20T08:16:25.628Z,67.63
2019-06-20T08:17:35.177Z,67.66
2019-06-20T08:18:26.593Z,67.10
2019-06-20T08:19:25.582Z,65.83
2019-06-20T08:20:25.686Z,64.64
2019-06-20T08:21:25.566Z,66.09
2019-06-20T08:22:25.846Z,67.53
2019-06-20T08:23:25.654Z,68.86
2019-06-20T08:24:25.523Z,69.73
2019-06-20T08:25:25.527Z,70.92
2019-06-20T08:26:25.543Z,70.92
2019-06-20T08:27:25.531Z,71.36
2019-06-20T08:28:25.506Z,71.89
2019-06-20T08:29:25.456Z,71.69
2019-06-20T08:30:25.450Z,71.00
2019-06-20T08:31:25.436Z,70.79
2019-06-20T08:32:25.507Z,70.69
2019-06-20T08:33:25.440Z,71.39
2019-06-20T08:34:25.709Z,70.79
2019-06-20T08:35:25.404Z,70.83
2019-06-20T08:36:25.397Z,70.89
2019-06-20T08:37:25.516Z,70.79
2019-06-20T08:38:25.427Z,70.29
2019-06-20T08:39:29.164Z,70.19
2019-06-20T08:40:25.347Z,68.29
2019-06-20T08:41:25.337Z,66.73
2019-06-20T08:42:25.338Z,66.30
2019-06-20T08:43:25.332Z,66.00
2019-06-20T08:44:25.403Z,66.73
2019-06-20T08:45:25.303Z,67.46
2019-06-20T08:46:25.579Z,67.59
2019-06-20T08:47:25.316Z,67.43
2019-06-20T08:48:25.319Z,68.32
2019-06-20T08:49:25.247Z,67.93
2019-06-20T08:50:25.276Z,67.99
2019-06-20T08:51:25.257Z,67.40
2019-06-20T08:52:25.240Z,67.82
2019-06-20T08:53:25.212Z,68.93
2019-06-20T08:54:25.197Z,68.62
2019-06-20T08:55:25.184Z,68.43
2019-06-20T08:56:25.916Z,69.02
2019-06-20T08:57:25.166Z,69.46
2019-06-20T08:58:25.157Z,68.76
2019-06-20T08:59:25.577Z,67.96
2019-06-20T09:00:25.179Z,67.76
2019-06-20T09:01:25.137Z,68.02
2019-06-20T09:02:25.236Z,68.13
2019-06-20T09:03:25.105Z,68.19
2019-06-20T09:04:25.132Z,67.59
2019-06-20T09:05:25.099Z,66.99
2019-06-20T09:06:25.409Z,66.76
2019-06-20T09:07:25.058Z,66.86
2019-06-20T09:08:25.097Z,66.96
2019-06-20T09:09:25.046Z,66.66
2019-06-20T09:10:25.018Z,63.87
2019-06-20T09:11:25.029Z,63.24
2019-06-20T09:12:25.008Z,61.79
2019-06-20T09:13:25.467Z,61.19
2019-06-20T09:14:25.058Z,60.66
2019-06-20T09:15:24.991Z,60.16
2019-06-20T09:16:25.142Z,60.66
2019-06-20T09:17:24.961Z,59.51
2019-06-20T09:18:24.958Z,58.88
2019-06-20T09:19:24.943Z,58.56
2019-06-20T09:20:25.348Z,57.73
2019-06-20T09:21:24.913Z,57.73
2019-06-20T09:22:24.958Z,57.56
2019-06-20T09:23:24.909Z,57.76
2019-06-20T09:24:24.889Z,59.41
2019-06-20T09:25:24.868Z,60.73
2019-06-20T09:26:24.910Z,61.25
2019-06-20T09:27:25.191Z,61.69
2019-06-20T09:28:24.991Z,62.18
2019-06-20T09:29:24.854Z,62.31
2019-06-20T09:30:24.820Z,62.94
2019-06-20T09:31:24.809Z,62.74
2019-06-20T09:32:24.878Z,62.57
2019-06-20T09:33:24.875Z,63.17
2019-06-20T09:34:25.818Z,61.39
2019-06-20T09:35:24.767Z,59.14
2019-06-20T09:36:24.856Z,59.04
2019-06-20T09:37:24.755Z,59.77
2019-06-20T09:38:24.781Z,61.41
2019-06-20T09:39:24.759Z,62.57
2019-06-20T09:40:25.628Z,63.67
2019-06-20T09:41:24.769Z,63.87
2019-06-20T09:42:24.742Z,63.44
2019-06-20T09:43:27.787Z,62.29
2019-06-20T09:44:24.721Z,60.50
2019-06-20T09:45:24.690Z,58.78
2019-06-20T09:46:25.083Z,57.71
2019-06-20T09:47:24.629Z,58.31
2019-06-20T09:48:24.625Z,59.23
2019-06-20T09:49:24.633Z,59.09
2019-06-20T09:50:24.684Z,59.19
2019-06-20T09:51:24.589Z,60.39
2019-06-20T09:52:24.606Z,60.69
2019-06-20T09:53:24.562Z,61.58
2019-06-20T09:54:24.587Z,61.49
2019-06-20T09:55:24.559Z,61.69
2019-06-20T09:56:24.592Z,62.31
2019-06-20T09:57:24.556Z,62.81
2019-06-20T09:58:24.972Z,62.41
2019-06-20T09:59:27.765Z,60.73
2019-06-20T10:00:24.532Z,59.48
2019-06-20T10:01:24.515Z,58.62
2019-06-20T10:02:24.539Z,57.11
2019-06-20T10:03:24.472Z,56.04
2019-06-20T10:04:24.441Z,55.21
2019-06-20T10:05:24.471Z,54.27
2019-06-20T10:06:24.424Z,53.65
2019-06-20T10:07:24.458Z,54.92
2019-06-20T10:08:24.449Z,55.24
2019-06-20T10:09:24.502Z,56.51
2019-06-20T10:10:24.853Z,59.41
2019-06-20T10:11:24.400Z,61.09
2019-06-20T10:12:24.374Z,61.32
2019-06-20T10:13:24.430Z,62.87
2019-06-20T10:14:24.397Z,63.77
2019-06-20T10:15:24.332Z,64.17
2019-06-20T10:16:24.331Z,64.37
2019-06-20T10:17:24.613Z,63.11
2019-06-20T10:18:24.314Z,60.90
2019-06-20T10:19:24.312Z,58.60
2019-06-20T10:20:24.344Z,56.26
2019-06-20T10:21:24.271Z,55.64
2019-06-20T10:22:24.327Z,55.41
2019-06-20T10:23:24.258Z,54.79
2019-06-20T10:24:24.533Z,55.44
2019-06-20T10:25:24.232Z,53.88
2019-06-20T10:26:25.054Z,53.06
2019-06-20T10:27:24.205Z,52.64
2019-06-20T10:28:24.226Z,52.26
2019-06-20T10:29:24.185Z,53.58
2019-06-20T10:30:24.174Z,54.52
2019-06-20T10:31:24.453Z,55.47
2019-06-20T10:32:24.204Z,55.87
2019-06-20T10:33:24.173Z,54.92
2019-06-20T10:34:24.143Z,54.22
2019-06-20T10:35:24.125Z,54.42
2019-06-20T10:36:24.114Z,53.28
2019-06-20T10:37:24.102Z,52.34
2019-06-20T10:38:24.494Z,53.38
2019-06-20T10:39:24.084Z,54.77
2019-06-20T10:40:24.074Z,54.87
2019-06-20T10:41:24.084Z,54.13
2019-06-20T10:42:24.054Z,53.78
2019-06-20T10:43:24.042Z,52.19
2019-06-20T10:44:24.107Z,51.40
2019-06-20T10:45:24.349Z,50.81
2019-06-20T10:46:24.045Z,50.58
2019-06-20T10:47:32.617Z,50.06
2019-06-20T10:48:25.014Z,49.64
2019-06-20T10:49:23.995Z,50.06
2019-06-20T10:50:24.015Z,50.48
2019-06-20T10:51:23.957Z,50.48
2019-06-20T10:52:24.339Z,50.26
2019-06-20T10:53:23.948Z,49.84
2019-06-20T10:54:23.916Z,49.52
2019-06-20T10:55:23.935Z,49.74
2019-06-20T10:56:23.936Z,49.10
2019-06-20T10:57:23.897Z,49.20
2019-06-20T10:58:24.155Z,51.28
2019-06-20T10:59:24.176Z,50.66
2019-06-20T11:00:30.814Z,50.66
2019-06-20T11:01:25.196Z,50.95
2019-06-20T11:02:23.871Z,51.07
2019-06-20T11:03:23.882Z,50.43
2019-06-20T11:04:23.836Z,51.47
2019-06-20T11:05:23.841Z,52.07
2019-06-20T11:06:24.237Z,50.53
2019-06-20T11:07:23.827Z,51.70
2019-06-20T11:08:23.822Z,53.66
2019-06-20T11:09:23.811Z,55.62
2019-06-20T11:10:23.760Z,56.47
2019-06-20T11:11:24.066Z,57.49
2019-06-20T11:12:23.737Z,58.51
2019-06-20T11:13:23.772Z,59.64
2019-06-20T11:14:23.708Z,59.77
2019-06-20T11:15:23.993Z,60.36
2019-06-20T11:16:23.728Z,60.76
2019-06-20T11:17:23.704Z,61.39
2019-06-20T11:18:23.678Z,60.89
2019-06-20T11:19:23.718Z,61.11
2019-06-20T11:20:23.758Z,61.94
2019-06-20T11:21:23.658Z,62.64
2019-06-20T11:22:23.648Z,62.97
2019-06-20T11:23:23.929Z,63.37
2019-06-20T11:24:23.609Z,63.67
2019-06-20T11:25:23.658Z,63.67
2019-06-20T11:26:23.608Z,63.37
2019-06-20T11:27:23.589Z,63.57
2019-06-20T11:28:23.571Z,63.24
2019-06-20T11:29:23.565Z,63.58
2019-06-20T11:30:23.558Z,59.38
2019-06-20T11:31:23.578Z,56.85
2019-06-20T11:32:23.539Z,53.16
2019-06-20T11:33:23.510Z,51.42
2019-06-20T11:34:23.529Z,51.75
2019-06-20T11:35:23.803Z,53.31
2019-06-20T11:36:23.593Z,55.04
2019-06-20T11:37:23.552Z,56.61
2019-06-20T11:38:23.461Z,57.83
2019-06-20T11:39:23.475Z,58.75
2019-06-20T11:40:23.472Z,58.88
2019-06-20T11:41:23.439Z,58.91
2019-06-20T11:42:23.428Z,57.82
2019-06-20T11:43:23.449Z,57.82
2019-06-20T11:44:23.601Z,58.41
2019-06-20T11:45:23.398Z,58.84
2019-06-20T11:46:23.384Z,59.14
2019-06-20T11:47:23.778Z,59.34
2019-06-20T11:48:23.371Z,58.61
2019-06-20T11:49:23.391Z,57.43
2019-06-20T11:50:23.348Z,54.13
2019-06-20T11:51:23.330Z,52.34
2019-06-20T11:52:23.368Z,52.91
2019-06-20T11:53:23.311Z,54.75
2019-06-20T11:54:23.791Z,54.94
2019-06-20T11:55:23.780Z,55.27
2019-06-20T11:56:23.304Z,54.64
2019-06-20T11:57:23.273Z,53.70
2019-06-20T11:58:23.658Z,52.41
2019-06-20T11:59:23.242Z,50.76
2019-06-20T12:00:23.252Z,50.13
2019-06-20T12:01:32.570Z,49.72
2019-06-20T12:02:24.233Z,52.19
2019-06-20T12:03:23.230Z,53.36
2019-06-20T12:04:23.383Z,54.68
2019-06-20T12:05:23.189Z,55.22
2019-06-20T12:06:23.172Z,55.94
2019-06-20T12:07:23.207Z,56.94
2019-06-20T12:08:24.625Z,55.89
2019-06-20T12:09:23.140Z,53.08
2019-06-20T12:10:23.144Z,50.41
2019-06-20T12:11:23.125Z,49.79
2019-06-20T12:12:23.215Z,48.98
2019-06-20T12:13:23.142Z,49.08
2019-06-20T12:14:23.309Z,49.37
2019-06-20T12:15:23.559Z,49.18
2019-06-20T12:16:23.343Z,48.44
2019-06-20T12:17:23.053Z,47.72
2019-06-20T12:18:23.053Z,47.35
2019-06-20T12:19:23.073Z,45.89
2019-06-20T12:20:23.025Z,45.10
2019-06-20T12:21:23.011Z,44.76
2019-06-20T12:22:23.405Z,45.24
2019-06-20T12:23:23.022Z,44.62
2019-06-20T12:24:22.986Z,44.45
2019-06-20T12:25:23.016Z,44.39
2019-06-20T12:26:22.964Z,46.04
2019-06-20T12:27:22.965Z,46.70
2019-06-20T12:28:23.001Z,47.53
2019-06-20T12:29:22.957Z,49.19
2019-06-20T12:30:22.954Z,50.60
2019-06-20T12:31:23.680Z,51.23
2019-06-20T12:32:22.894Z,52.04
2019-06-20T12:33:22.905Z,52.67
2019-06-20T12:34:22.885Z,53.58
2019-06-20T12:35:23.159Z,53.58
2019-06-20T12:36:22.924Z,53.56
2019-06-20T12:37:22.875Z,51.57
2019-06-20T12:38:22.880Z,50.63
2019-06-20T12:39:22.825Z,50.34
2019-06-20T12:40:22.823Z,50.01
2019-06-20T12:41:22.808Z,49.94
2019-06-20T12:42:22.906Z,48.61
2019-06-20T12:43:22.836Z,47.20
2019-06-20T12:44:22.956Z,45.36
2019-06-20T12:45:22.768Z,44.35
2019-06-20T12:46:22.778Z,44.23
2019-06-20T12:47:22.758Z,43.20
2019-06-20T12:48:22.746Z,43.30
2019-06-20T12:49:24.026Z,43.34
2019-06-20T12:50:22.717Z,43.05
2019-06-20T12:51:22.700Z,43.54
2019-06-20T12:52:22.707Z,42.83
2019-06-20T12:53:23.397Z,43.05
2019-06-20T12:54:22.728Z,43.34
2019-06-20T12:55:22.689Z,43.10